CBF8 weather

Muncho Lake/Mile 462 Seaplane Base
British Columbia, Canada

Public forecast

Using degrees Celsius for public forecast. Weather courtesy of forecast.io.

Closest aviation weather report (METAR) to Muncho Lake/Mile 462 Seaplane Base

Report is more than 6 hours old.

Closest report is Fort Liard Airport, 101.5 nm (188.1 km) NE. Retrieved 2019/10/14 08:00 UTC (9 hours ago):

CYJF 140800Z 19004KT 12SM -SHSN FEW027 SCT073 BKN094 BKN240 M03/M04 A3010 RMK SC1AC2AC3CI1 OCNL -SHSN/LAST STFD OBS/NXT 151400Z SLP206

Closest aviation forecast (TAF) to Muncho Lake/Mile 462 Seaplane Base

Closest forecast is Fort Nelson Airport, 99.0 nm (183.4 km) E. Retrieved 2019/10/14 13:42 UTC (3 hours ago):

TAF CYYE 141238Z 1413/1501 VRB03KT 2SM BR BKN001 TEMPO 1413/1416 P6SM NSW FEW001 SCT060 FM141600 15005KT P6SM SCT025 TEMPO 1416/1501 BKN020 RMK NXT FCST BY 141900Z